Terminal Aerodrome Forecast
Issued by NWS

Home | Current Version | Previous Version | Text Only | Print | Product List | Glossary On
Versions: 1 2 3 4 5 6 7 8 9 10 11 12 13 14
000
FTUS42 TJSJ 271900 AAA
TAFNCM
TAF AMD
TNCM 271916Z 2719/2818 09012G24KT P6SM FEW021
     FM272330 09012KT P6SM FEW019
     FM281400 10015KT P6SM FEW020=

USA.gov is the U.S. government's official web portal to all federal, state and local government web resources and services.